Time;durP1;ratioP1;P1;durP2;ratioP2;P2;SDS_P1;SDS_P2;PMS_P1;PMS_P2;Temp;Humidity;BMP_temperature;BMP_pressure;BME280_temperature;BME280_humidity;BME280_pressure;Samples;Min_cycle;Max_cycle;Signal;HPM_P1;HPM_P2
2023/12/27 00:00:48;;;;;;;7.67;1.47;;;4.50;99.90;;;;;;5054440;28;20215;-91
2023/12/27 00:03:14;;;;;;;9.47;1.47;;;4.50;99.90;;;;;;5054467;28;20213;-90
2023/12/27 00:05:40;;;;;;;6.57;1.40;;;4.40;99.90;;;;;;5054271;28;20224;-90
2023/12/27 00:08:06;;;;;;;9.80;1.50;;;4.40;99.90;;;;;;5054355;28;20188;-90
2023/12/27 00:10:31;;;;;;;9.80;1.90;;;4.40;99.90;;;;;;5054714;28;20557;-90
2023/12/27 00:12:57;;;;;;;12.07;1.80;;;4.40;99.90;;;;;;5054331;28;20193;-90
2023/12/27 00:15:23;;;;;;;11.03;1.83;;;4.40;99.90;;;;;;5054783;28;20186;-91
2023/12/27 00:17:49;;;;;;;11.27;1.70;;;4.40;99.90;;;;;;5054096;28;20280;-90
2023/12/27 00:20:14;;;;;;;9.17;1.40;;;4.40;99.90;;;;;;5054516;28;20527;-89
2023/12/27 00:22:40;;;;;;;10.63;1.30;;;4.40;99.90;;;;;;5054077;28;20239;-90
2023/12/27 00:25:07;;;;;;;7.87;1.40;;;4.40;99.90;;;;;;5054027;28;20619;-90
2023/12/27 00:27:35;;;;;;;6.47;1.47;;;4.40;99.90;;;;;;5053438;28;20283;-90
2023/12/27 00:30:04;;;;;;;10.60;1.53;;;4.40;99.90;;;;;;5054189;28;20193;-90
2023/12/27 00:32:30;;;;;;;8.60;1.77;;;4.30;99.90;;;;;;5053832;28;20185;-90
2023/12/27 00:34:55;;;;;;;9.53;1.83;;;4.30;99.90;;;;;;5053846;28;20567;-88
2023/12/27 00:37:21;;;;;;;8.80;1.60;;;4.40;99.90;;;;;;5054866;28;20178;-89
2023/12/27 00:39:48;;;;;;;17.17;1.60;;;4.40;99.90;;;;;;5053851;28;20217;-90
2023/12/27 00:42:14;;;;;;;10.33;2.07;;;4.40;99.90;;;;;;5053843;28;20186;-91
2023/12/27 00:44:39;;;;;;;7.60;1.67;;;4.30;99.90;;;;;;5054135;28;20188;-89
2023/12/27 00:47:05;;;;;;;7.90;1.67;;;4.20;99.90;;;;;;5053801;28;20182;-90
2023/12/27 00:49:31;;;;;;;11.03;1.57;;;4.30;99.90;;;;;;5054016;28;20178;-90
2023/12/27 00:51:57;;;;;;;8.30;1.73;;;4.20;99.90;;;;;;5053528;28;20189;-89
2023/12/27 00:54:22;;;;;;;7.17;1.30;;;4.20;99.90;;;;;;5053837;28;20269;-91
2023/12/27 00:56:49;;;;;;;10.20;1.60;;;4.20;99.90;;;;;;5054431;28;20185;-91
2023/12/27 00:59:16;;;;;;;11.30;1.40;;;4.20;99.90;;;;;;5053620;28;20531;-91
2023/12/27 01:01:43;;;;;;;13.07;2.03;;;4.20;99.90;;;;;;5053196;28;20738;-90
2023/12/27 01:04:09;;;;;;;5.87;1.80;;;4.20;99.90;;;;;;5053860;28;20232;-91
2023/12/27 01:06:35;;;;;;;9.43;1.57;;;4.20;99.90;;;;;;5053536;28;20235;-91
2023/12/27 01:09:01;;;;;;;11.10;1.60;;;4.10;99.90;;;;;;5054452;28;20178;-90
2023/12/27 01:11:27;;;;;;;6.77;1.67;;;4.10;99.90;;;;;;5053748;28;20268;-90
2023/12/27 01:13:53;;;;;;;12.53;2.07;;;4.10;99.90;;;;;;5054299;28;20552;-90
2023/12/27 01:16:19;;;;;;;11.30;1.97;;;4.10;99.90;;;;;;5052894;28;20186;-90
2023/12/27 01:18:45;;;;;;;9.47;1.50;;;4.00;99.90;;;;;;5053516;28;20186;-90
2023/12/27 01:21:13;;;;;;;9.97;1.83;;;4.00;99.90;;;;;;5053508;28;20241;-90
2023/12/27 01:23:38;;;;;;;9.83;1.60;;;4.00;99.90;;;;;;5053804;28;20182;-92
2023/12/27 01:26:04;;;;;;;4.97;1.50;;;3.90;99.90;;;;;;5053233;28;20232;-90
2023/12/27 01:28:30;;;;;;;15.30;1.97;;;3.90;99.90;;;;;;5053464;28;20182;-91
2023/12/27 01:30:56;;;;;;;5.93;1.10;;;3.90;99.90;;;;;;5053692;28;20186;-91
2023/12/27 01:33:21;;;;;;;10.83;1.50;;;3.90;99.90;;;;;;5053512;28;20185;-91
2023/12/27 01:35:47;;;;;;;10.30;1.53;;;3.80;99.90;;;;;;5053427;28;20655;-90
2023/12/27 01:38:13;;;;;;;15.43;2.33;;;3.80;99.90;;;;;;5054655;28;20631;-89
2023/12/27 01:40:51;;;;;;;9.83;1.60;;;3.80;99.90;;;;;;5053775;28;20232;-90
2023/12/27 01:43:17;;;;;;;15.97;2.00;;;3.80;99.90;;;;;;5053643;28;20186;-90
2023/12/27 01:45:45;;;;;;;9.13;1.50;;;3.80;99.90;;;;;;5053540;28;20181;-90
2023/12/27 01:48:11;;;;;;;9.10;1.53;;;3.80;99.90;;;;;;5053424;28;20260;-91
2023/12/27 01:50:38;;;;;;;10.70;1.90;;;3.70;99.90;;;;;;5053429;28;20209;-90
2023/12/27 01:53:04;;;;;;;12.77;1.70;;;3.70;99.90;;;;;;5053647;28;20193;-90
2023/12/27 01:55:30;;;;;;;5.67;1.40;;;3.70;99.90;;;;;;5053257;28;20284;-90
2023/12/27 01:57:56;;;;;;;5.67;1.50;;;3.70;99.90;;;;;;5054368;28;20257;-90
2023/12/27 02:00:23;;;;;;;10.67;1.30;;;3.70;99.90;;;;;;5053430;28;20220;-89
2023/12/27 02:02:49;;;;;;;11.13;1.23;;;3.60;99.90;;;;;;5053528;28;20182;-89
2023/12/27 02:05:15;;;;;;;10.93;1.97;;;3.60;99.90;;;;;;5056782;28;20193;-89
2023/12/27 02:07:42;;;;;;;9.63;1.67;;;3.60;99.90;;;;;;5056947;28;20182;-89
2023/12/27 02:10:08;;;;;;;9.67;1.53;;;3.60;99.90;;;;;;5057123;28;20197;-89
2023/12/27 02:12:34;;;;;;;12.93;2.50;;;3.60;99.90;;;;;;5056301;28;20251;-89
2023/12/27 02:14:59;;;;;;;13.90;1.67;;;3.60;99.90;;;;;;5056023;28;20276;-90
2023/12/27 02:17:27;;;;;;;10.10;1.73;;;3.50;99.90;;;;;;5056129;28;20693;-89
2023/12/27 02:19:55;;;;;;;10.20;1.80;;;3.50;99.90;;;;;;5056410;28;20210;-90
2023/12/27 02:22:23;;;;;;;9.57;2.13;;;3.50;99.90;;;;;;5056561;28;20194;-90
2023/12/27 02:24:53;;;;;;;12.00;1.67;;;3.50;99.90;;;;;;5056144;28;20678;-89
2023/12/27 02:27:20;;;;;;;9.37;1.60;;;3.50;99.90;;;;;;5056098;28;20351;-89
2023/12/27 02:29:47;;;;;;;11.17;1.63;;;3.50;99.90;;;;;;5056510;28;20245;-90
2023/12/27 02:32:12;;;;;;;8.17;0.97;;;3.50;99.90;;;;;;5057544;28;20182;-89
2023/12/27 02:34:38;;;;;;;12.93;2.00;;;3.50;99.90;;;;;;5056326;28;20208;-90
2023/12/27 02:37:04;;;;;;;8.60;1.30;;;3.50;99.90;;;;;;5055906;28;20208;-90
2023/12/27 02:39:30;;;;;;;10.43;1.73;;;3.50;99.90;;;;;;5056048;28;20177;-89
2023/12/27 02:41:56;;;;;;;7.07;1.37;;;3.50;99.90;;;;;;5055849;28;20217;-90
2023/12/27 02:44:25;;;;;;;8.73;1.50;;;3.50;99.90;;;;;;5056165;28;20236;-90
2023/12/27 02:46:54;;;;;;;13.27;1.60;;;3.40;99.90;;;;;;5055811;28;20273;-90
2023/12/27 02:49:20;;;;;;;8.43;1.40;;;3.40;99.90;;;;;;5057231;28;20269;-89
2023/12/27 02:51:47;;;;;;;11.23;1.63;;;3.40;99.90;;;;;;5055981;28;20232;-90
2023/12/27 02:54:13;;;;;;;8.13;1.57;;;3.40;99.90;;;;;;5055971;28;20235;-93
2023/12/27 02:56:38;;;;;;;9.30;1.60;;;3.40;99.90;;;;;;5055289;28;20182;-89
2023/12/27 02:59:04;;;;;;;11.73;1.63;;;3.40;99.90;;;;;;5056979;28;20182;-90
2023/12/27 03:01:30;;;;;;;11.60;1.70;;;3.30;99.90;;;;;;5055801;28;20644;-89
2023/12/27 03:03:56;;;;;;;10.40;1.63;;;3.40;99.90;;;;;;5055637;28;20188;-90
2023/12/27 03:06:21;;;;;;;9.87;1.70;;;3.40;99.90;;;;;;5055170;28;20228;-89
2023/12/27 03:08:51;;;;;;;6.30;1.57;;;3.30;99.90;;;;;;5055225;28;20193;-92
2023/12/27 03:11:18;;;;;;;18.33;2.83;;;3.30;99.90;;;;;;5055352;28;20190;-89
2023/12/27 03:13:43;;;;;;;7.07;1.43;;;3.30;99.90;;;;;;5055516;28;20632;-90
2023/12/27 03:16:09;;;;;;;13.53;1.77;;;3.30;99.90;;;;;;5055097;28;20192;-90
2023/12/27 03:18:35;;;;;;;7.17;1.17;;;3.30;99.90;;;;;;5055418;28;20186;-90
2023/12/27 03:21:01;;;;;;;10.13;1.40;;;3.30;99.90;;;;;;5056461;28;20241;-89
2023/12/27 03:23:27;;;;;;;9.60;1.50;;;3.30;99.90;;;;;;5055149;28;20193;-89
2023/12/27 03:25:56;;;;;;;8.43;1.63;;;3.30;99.90;;;;;;5056138;28;20186;-90
2023/12/27 03:28:23;;;;;;;14.33;1.40;;;3.30;99.90;;;;;;5056080;28;20647;-90
2023/12/27 03:30:49;;;;;;;9.43;1.50;;;3.30;99.90;;;;;;5055064;28;20194;-89
2023/12/27 03:33:15;;;;;;;9.53;1.43;;;3.30;99.90;;;;;;5056122;28;20178;-89
2023/12/27 03:35:41;;;;;;;10.23;1.73;;;3.30;99.90;;;;;;5054813;28;20247;-90
2023/12/27 03:38:07;;;;;;;10.63;1.90;;;3.30;99.90;;;;;;5054711;28;20190;-90
2023/12/27 03:40:32;;;;;;;6.13;1.40;;;3.30;99.90;;;;;;5054809;28;20224;-90
2023/12/27 03:42:58;;;;;;;14.67;1.70;;;3.20;99.90;;;;;;5055647;28;20204;-90
2023/12/27 03:45:24;;;;;;;8.43;1.30;;;3.20;99.90;;;;;;5054620;28;20193;-90
2023/12/27 03:47:50;;;;;;;15.73;2.00;;;3.20;99.90;;;;;;5054584;28;20280;-89
2023/12/27 03:50:26;;;;;;;10.73;1.73;;;3.20;99.90;;;;;;5054713;28;20227;-90
2023/12/27 03:52:52;;;;;;;9.70;1.63;;;3.20;99.90;;;;;;5054637;28;20639;-89
2023/12/27 03:55:18;;;;;;;6.23;1.60;;;3.20;99.90;;;;;;5054763;28;20224;-89
2023/12/27 03:57:43;;;;;;;7.40;1.53;;;3.20;99.90;;;;;;5054147;28;20212;-90
2023/12/27 04:00:11;;;;;;;8.40;1.63;;;3.10;99.90;;;;;;5054674;28;20633;-89
2023/12/27 04:02:36;;;;;;;9.90;1.90;;;3.10;99.90;;;;;;5054401;28;20396;-89
2023/12/27 04:05:03;;;;;;;7.70;1.40;;;3.10;99.90;;;;;;5054561;28;20217;-89
2023/12/27 04:07:29;;;;;;;5.43;1.07;;;3.00;99.90;;;;;;5054220;28;20212;-90
2023/12/27 04:09:57;;;;;;;11.70;1.90;;;3.00;99.90;;;;;;5054262;28;20194;-89
2023/12/27 04:12:23;;;;;;;6.07;1.40;;;3.00;99.90;;;;;;5054022;28;20187;-89
2023/12/27 04:14:49;;;;;;;6.70;1.50;;;3.00;99.90;;;;;;5054260;28;20194;-89
2023/12/27 04:17:15;;;;;;;9.00;1.50;;;3.00;99.90;;;;;;5053788;28;20280;-88
2023/12/27 04:19:42;;;;;;;10.07;1.73;;;3.00;99.90;;;;;;5053910;28;20289;-88
2023/12/27 04:22:09;;;;;;;4.90;1.20;;;3.00;99.90;;;;;;5054235;28;20182;-89
2023/12/27 04:24:35;;;;;;;7.17;1.40;;;3.00;99.90;;;;;;5054293;28;20339;-90
2023/12/27 04:27:01;;;;;;;9.67;2.00;;;3.00;99.90;;;;;;5052899;28;20226;-89
2023/12/27 04:29:27;;;;;;;15.17;1.67;;;2.90;99.90;;;;;;5053936;28;20185;-89
2023/12/27 04:31:53;;;;;;;7.73;1.40;;;2.90;99.90;;;;;;5053982;28;20280;-88
2023/12/27 04:34:18;;;;;;;7.57;1.50;;;2.90;99.90;;;;;;5053724;28;20199;-89
2023/12/27 04:36:44;;;;;;;7.70;1.43;;;2.80;99.90;;;;;;5053585;28;20192;-90
2023/12/27 04:39:10;;;;;;;9.97;1.60;;;2.80;99.90;;;;;;5053928;28;20522;-89
2023/12/27 04:41:50;;;;;;;10.37;1.97;;;2.80;99.90;;;;;;5053606;28;20205;-89
2023/12/27 04:44:16;;;;;;;10.30;1.60;;;2.80;99.90;;;;;;5054074;28;20193;-90
2023/12/27 04:46:41;;;;;;;7.40;1.33;;;2.80;99.90;;;;;;5053659;28;20255;-90
2023/12/27 04:49:09;;;;;;;7.97;1.50;;;2.70;99.90;;;;;;5055076;28;20243;-89
2023/12/27 04:51:35;;;;;;;8.30;1.87;;;2.70;99.90;;;;;;5054140;28;20231;-89
2023/12/27 04:54:02;;;;;;;8.27;1.40;;;2.60;99.90;;;;;;5045801;28;20181;-89
2023/12/27 04:56:28;;;;;;;6.70;1.60;;;2.60;99.90;;;;;;5053600;28;20185;-89
2023/12/27 04:58:54;;;;;;;9.53;1.67;;;2.60;99.90;;;;;;5053781;28;20629;-90
2023/12/27 05:01:22;;;;;;;14.97;2.00;;;2.50;99.90;;;;;;5053712;28;20213;-89
2023/12/27 05:03:50;;;;;;;11.37;1.70;;;2.50;99.90;;;;;;5053836;28;20194;-90
2023/12/27 05:06:16;;;;;;;8.13;1.63;;;2.50;99.90;;;;;;5053591;28;20622;-90
2023/12/27 05:08:42;;;;;;;13.33;1.97;;;2.50;99.90;;;;;;5053925;28;20213;-91
2023/12/27 05:11:18;;;;;;;5.33;1.60;;;2.40;99.90;;;;;;5053474;28;20244;-92
2023/12/27 05:13:43;;;;;;;11.43;1.57;;;2.40;99.90;;;;;;5053087;28;20640;-91
2023/12/27 05:16:17;;;;;;;10.43;1.67;;;2.40;99.90;;;;;;5053964;28;20228;-91
2023/12/27 05:18:44;;;;;;;8.97;2.30;;;2.50;99.90;;;;;;5054098;28;20276;-91
2023/12/27 05:21:12;;;;;;;14.00;1.90;;;2.50;99.90;;;;;;5054399;28;20213;-90
2023/12/27 05:23:38;;;;;;;13.47;2.17;;;2.50;99.90;;;;;;5053826;28;20320;-90
2023/12/27 05:26:05;;;;;;;8.40;1.53;;;2.50;99.90;;;;;;5053580;28;20264;-89
2023/12/27 05:28:32;;;;;;;9.00;1.50;;;2.50;99.90;;;;;;5053341;28;20214;-90
2023/12/27 05:31:00;;;;;;;10.90;1.47;;;2.50;99.90;;;;;;5053584;28;20193;-90
2023/12/27 05:33:26;;;;;;;6.20;1.43;;;2.50;99.90;;;;;;5053356;28;20189;-90
2023/12/27 05:35:52;;;;;;;9.57;1.63;;;2.50;99.90;;;;;;5053045;28;20193;-88
2023/12/27 05:38:18;;;;;;;11.83;1.50;;;2.60;99.90;;;;;;5053524;28;20185;-89
2023/12/27 05:40:44;;;;;;;7.47;1.63;;;2.60;99.90;;;;;;5057037;28;20228;-90
2023/12/27 05:43:10;;;;;;;6.63;1.50;;;2.60;99.90;;;;;;5056829;28;20256;-90
2023/12/27 05:45:35;;;;;;;10.33;1.43;;;2.60;99.90;;;;;;5058265;28;20581;-89
2023/12/27 05:48:01;;;;;;;11.97;1.87;;;2.60;99.90;;;;;;5057013;28;20181;-89
2023/12/27 05:50:28;;;;;;;10.37;1.57;;;2.60;99.90;;;;;;5057689;28;20531;-90
2023/12/27 05:52:54;;;;;;;10.50;1.87;;;2.60;99.90;;;;;;5057155;28;20190;-88
2023/12/27 05:55:20;;;;;;;7.40;1.63;;;2.70;99.90;;;;;;5056986;28;20185;-88
2023/12/27 05:57:46;;;;;;;6.97;1.20;;;2.60;99.90;;;;;;5056199;28;20238;-89
2023/12/27 06:00:15;;;;;;;9.93;1.37;;;2.70;99.90;;;;;;5056773;28;20217;-89
2023/12/27 06:02:41;;;;;;;8.70;1.53;;;2.70;99.90;;;;;;5056740;28;20197;-88
2023/12/27 06:05:09;;;;;;;7.33;1.43;;;2.70;99.90;;;;;;5056986;28;20244;-89
2023/12/27 06:07:35;;;;;;;8.80;1.40;;;2.70;99.90;;;;;;5056368;28;20196;-88
2023/12/27 06:10:02;;;;;;;4.13;1.33;;;2.70;99.90;;;;;;5048458;28;20193;-89
2023/12/27 06:12:38;;;;;;;8.37;1.50;;;2.70;99.90;;;;;;5056372;28;20681;-88
2023/12/27 06:15:04;;;;;;;8.00;1.27;;;2.70;99.90;;;;;;5056758;28;20193;-88
2023/12/27 06:17:30;;;;;;;9.30;1.33;;;2.70;99.90;;;;;;5056254;28;20188;-89
2023/12/27 06:19:55;;;;;;;11.10;2.03;;;2.60;99.90;;;;;;5056338;28;20198;-88
2023/12/27 06:22:22;;;;;;;7.90;1.20;;;2.60;99.90;;;;;;5056235;28;20639;-88
2023/12/27 06:24:48;;;;;;;9.20;1.60;;;2.60;99.90;;;;;;5056166;28;20194;-89
2023/12/27 06:27:14;;;;;;;10.00;1.50;;;2.60;99.90;;;;;;5055757;28;20283;-89
2023/12/27 06:29:40;;;;;;;6.67;1.40;;;2.60;99.90;;;;;;5057507;28;20245;-89
2023/12/27 06:32:06;;;;;;;10.03;1.87;;;2.60;99.90;;;;;;5056317;28;20186;-91
2023/12/27 06:34:32;;;;;;;7.20;1.70;;;2.50;99.90;;;;;;5056215;28;20202;-89
2023/12/27 06:36:57;;;;;;;12.53;1.90;;;2.50;99.90;;;;;;5055848;28;20243;-89
2023/12/27 06:39:23;;;;;;;7.00;1.77;;;2.50;99.90;;;;;;5057117;28;20259;-89
2023/12/27 06:41:49;;;;;;;13.63;1.80;;;2.50;99.90;;;;;;5055357;28;20644;-89
2023/12/27 06:44:15;;;;;;;8.57;1.53;;;2.60;99.90;;;;;;5056643;28;20485;-89
2023/12/27 06:46:40;;;;;;;10.27;1.63;;;2.50;99.90;;;;;;5055181;28;20193;-89
2023/12/27 06:49:06;;;;;;;11.17;2.23;;;2.50;99.90;;;;;;5055664;28;20190;-89
2023/12/27 06:51:32;;;;;;;6.70;1.50;;;2.50;99.90;;;;;;5055825;28;20213;-89
2023/12/27 06:53:58;;;;;;;11.53;1.83;;;2.50;99.90;;;;;;5055840;28;20679;-89
2023/12/27 06:56:23;;;;;;;4.57;1.40;;;2.50;99.90;;;;;;5055583;28;20651;-89
2023/12/27 06:58:49;;;;;;;9.00;1.70;;;2.50;99.90;;;;;;5047271;28;20185;-90
2023/12/27 07:01:18;;;;;;;8.80;2.10;;;2.50;99.90;;;;;;5055383;28;20557;-89
2023/12/27 07:03:44;;;;;;;8.80;1.40;;;2.60;99.90;;;;;;5055777;28;20227;-88
2023/12/27 07:06:09;;;;;;;5.97;1.53;;;2.50;99.90;;;;;;5061682;28;20500;-89
2023/12/27 07:08:35;;;;;;;11.73;1.40;;;2.50;99.90;;;;;;5057568;28;20208;-89
2023/12/27 07:11:01;;;;;;;5.57;1.40;;;2.50;99.90;;;;;;5054998;28;20188;-89
2023/12/27 07:13:27;;;;;;;5.73;1.47;;;2.50;99.90;;;;;;5055178;28;20186;-89
2023/12/27 07:15:53;;;;;;;8.63;1.63;;;2.40;99.90;;;;;;5054996;28;20319;-89
2023/12/27 07:18:19;;;;;;;8.43;1.43;;;2.40;99.90;;;;;;5055106;28;20192;-89
2023/12/27 07:20:45;;;;;;;8.13;1.17;;;2.40;99.90;;;;;;5057465;28;20205;-90
2023/12/27 07:23:11;;;;;;;11.40;1.60;;;2.40;99.90;;;;;;5056829;28;20270;-90
2023/12/27 07:25:37;;;;;;;14.87;1.57;;;2.30;99.90;;;;;;5055538;28;20193;-89
2023/12/27 07:28:03;;;;;;;8.33;1.60;;;2.30;99.90;;;;;;5055373;28;20225;-90
2023/12/27 07:30:29;;;;;;;7.20;1.60;;;2.30;99.90;;;;;;5055038;28;20186;-90
2023/12/27 07:33:01;;;;;;;9.17;1.73;;;2.30;99.90;;;;;;5054581;28;20277;-89
2023/12/27 07:35:27;;;;;;;11.97;1.80;;;2.30;99.90;;;;;;5050004;28;20193;-89
2023/12/27 07:37:52;;;;;;;6.83;1.53;;;2.30;99.90;;;;;;5054556;28;20184;-89
2023/12/27 07:40:18;;;;;;;3.50;1.20;;;2.30;99.90;;;;;;5053425;28;20644;-89
2023/12/27 07:42:55;;;;;;;9.03;1.40;;;2.30;99.90;;;;;;5054539;28;20219;-90
2023/12/27 07:45:22;;;;;;;9.47;1.90;;;2.30;99.90;;;;;;5054627;28;20173;-89
2023/12/27 07:47:48;;;;;;;17.57;2.00;;;2.40;99.90;;;;;;5054512;28;20224;-89
2023/12/27 07:50:14;;;;;;;8.73;2.30;;;2.40;99.90;;;;;;5056658;28;20221;-90
2023/12/27 07:52:42;;;;;;;11.77;2.20;;;2.40;99.90;;;;;;5054602;28;20264;-90
2023/12/27 07:55:08;;;;;;;10.47;2.00;;;2.40;99.90;;;;;;5058767;28;20194;-89
2023/12/27 07:57:33;;;;;;;11.63;1.73;;;2.40;99.90;;;;;;5055072;28;20247;-89
2023/12/27 08:00:00;;;;;;;10.40;1.93;;;2.50;99.90;;;;;;5051533;28;20631;-88
2023/12/27 08:02:27;;;;;;;5.00;1.40;;;2.50;99.90;;;;;;5058341;28;20194;-89
2023/12/27 08:04:53;;;;;;;8.63;1.73;;;2.40;99.90;;;;;;5057611;28;20186;-89
2023/12/27 08:07:19;;;;;;;8.13;1.60;;;2.40;99.90;;;;;;5056436;28;20189;-89
2023/12/27 08:09:44;;;;;;;16.47;1.80;;;2.40;99.90;;;;;;5053895;28;20239;-89
2023/12/27 08:12:12;;;;;;;9.77;1.40;;;2.40;99.90;;;;;;5053605;28;20181;-88
2023/12/27 08:14:38;;;;;;;7.07;1.63;;;2.40;99.90;;;;;;5055025;28;20324;-87
2023/12/27 08:17:04;;;;;;;12.73;1.90;;;2.40;99.90;;;;;;5054115;28;20636;-89
2023/12/27 08:19:30;;;;;;;8.83;1.73;;;2.50;99.90;;;;;;5056253;28;20223;-89
2023/12/27 08:21:55;;;;;;;11.03;1.93;;;2.50;99.90;;;;;;5054234;28;21227;-89
2023/12/27 08:24:21;;;;;;;13.43;1.60;;;2.50;99.90;;;;;;5059587;28;20260;-88
2023/12/27 08:26:47;;;;;;;14.03;2.00;;;2.50;99.90;;;;;;5053417;28;20234;-89
2023/12/27 08:29:13;;;;;;;7.97;1.43;;;2.60;99.90;;;;;;5060121;28;20178;-89
2023/12/27 08:31:38;;;;;;;15.77;2.10;;;2.60;99.90;;;;;;5055114;28;20216;-89
2023/12/27 08:34:06;;;;;;;7.27;1.60;;;2.70;99.90;;;;;;5053623;28;20524;-89
2023/12/27 08:36:32;;;;;;;15.63;2.23;;;2.70;99.90;;;;;;5053930;28;20190;-89
2023/12/27 08:38:58;;;;;;;9.70;1.97;;;2.80;99.90;;;;;;5054635;28;20670;-89
2023/12/27 08:41:25;;;;;;;9.93;1.70;;;2.80;99.90;;;;;;5055630;28;20312;-88
2023/12/27 08:43:54;;;;;;;9.00;1.67;;;2.80;99.90;;;;;;5054810;28;20186;-89
2023/12/27 08:46:20;;;;;;;12.40;1.90;;;2.80;99.90;;;;;;5054586;28;20181;-88
2023/12/27 08:48:46;;;;;;;7.27;1.73;;;2.90;99.90;;;;;;5053474;28;20627;-88
2023/12/27 08:51:12;;;;;;;10.07;2.00;;;2.90;99.90;;;;;;5055890;28;20185;-88
2023/12/27 08:53:39;;;;;;;9.43;1.93;;;2.90;99.90;;;;;;5053844;28;20190;-91
2023/12/27 08:56:05;;;;;;;14.30;1.77;;;3.00;99.90;;;;;;5053864;28;20201;-90
2023/12/27 08:58:32;;;;;;;7.33;2.27;;;3.00;99.90;;;;;;5055110;28;20220;-90
2023/12/27 09:00:58;;;;;;;10.97;2.10;;;3.00;99.90;;;;;;5054676;28;20252;-89
2023/12/27 09:03:28;;;;;;;14.20;2.43;;;3.00;99.90;;;;;;5053457;28;20621;-89
2023/12/27 09:05:54;;;;;;;8.37;1.87;;;3.10;99.90;;;;;;5054449;28;20185;-89
2023/12/27 09:08:19;;;;;;;11.43;2.17;;;3.10;99.90;;;;;;5055800;28;20185;-89
2023/12/27 09:10:45;;;;;;;10.80;1.90;;;3.10;99.90;;;;;;5055924;28;20174;-89
2023/12/27 09:13:11;;;;;;;6.83;1.90;;;3.20;99.90;;;;;;5054537;28;20190;-89
2023/12/27 09:15:37;;;;;;;8.70;1.80;;;3.20;99.90;;;;;;5059470;28;20185;-89
2023/12/27 09:18:03;;;;;;;9.57;2.07;;;3.20;99.90;;;;;;5057562;28;20196;-89
2023/12/27 09:20:28;;;;;;;9.17;1.90;;;3.30;99.90;;;;;;5057341;28;20656;-88
2023/12/27 09:23:07;;;;;;;8.80;1.80;;;3.30;99.90;;;;;;5058481;28;20182;-89
2023/12/27 09:25:33;;;;;;;9.20;1.70;;;3.40;99.90;;;;;;5057437;28;20643;-89
2023/12/27 09:28:02;;;;;;;5.80;1.60;;;3.40;99.90;;;;;;5058247;28;20225;-89
2023/12/27 09:30:28;;;;;;;4.30;1.43;;;3.40;99.90;;;;;;5058646;28;20200;-91
2023/12/27 09:32:55;;;;;;;11.37;2.17;;;3.50;99.90;;;;;;5058452;28;20194;-90
2023/12/27 09:35:20;;;;;;;7.00;1.57;;;3.60;99.90;;;;;;5058459;28;20189;-90
2023/12/27 09:37:46;;;;;;;6.27;1.60;;;3.60;99.90;;;;;;5057340;28;20193;-90
2023/12/27 09:40:12;;;;;;;8.87;1.83;;;3.70;99.90;;;;;;5057060;28;20225;-89
2023/12/27 09:42:40;;;;;;;6.60;1.60;;;3.70;99.90;;;;;;5056570;28;20186;-89
2023/12/27 09:45:08;;;;;;;5.97;1.43;;;3.80;99.90;;;;;;5056624;28;20210;-90
2023/12/27 09:47:35;;;;;;;6.37;1.07;;;3.90;99.90;;;;;;5056637;28;20186;-90
2023/12/27 09:50:03;;;;;;;12.03;1.73;;;3.90;99.90;;;;;;5058057;28;20185;-90
2023/12/27 09:52:30;;;;;;;10.80;2.07;;;3.90;99.90;;;;;;5058183;28;20178;-89
2023/12/27 09:54:57;;;;;;;8.07;2.07;;;4.00;99.90;;;;;;5057651;28;20261;-89
2023/12/27 09:57:25;;;;;;;11.10;1.87;;;4.00;99.90;;;;;;5056245;28;20220;-89
2023/12/27 09:59:54;;;;;;;14.03;1.97;;;4.00;99.90;;;;;;5059135;28;20178;-89
2023/12/27 10:02:22;;;;;;;8.77;1.73;;;4.00;99.90;;;;;;5056484;28;20189;-89
2023/12/27 10:04:54;;;;;;;6.00;1.73;;;4.10;99.90;;;;;;5056698;28;20186;-89
2023/12/27 10:07:21;;;;;;;8.97;1.60;;;4.10;99.90;;;;;;5059074;28;20299;-90
2023/12/27 10:09:47;;;;;;;8.30;1.80;;;4.10;99.90;;;;;;5056051;28;20190;-89
2023/12/27 10:12:14;;;;;;;7.57;1.77;;;4.20;99.90;;;;;;5056374;28;20614;-89
2023/12/27 10:14:41;;;;;;;8.43;1.43;;;4.20;99.90;;;;;;5057484;28;20262;-89
2023/12/27 10:17:07;;;;;;;6.63;1.63;;;4.20;99.90;;;;;;5056268;28;20190;-90
2023/12/27 10:19:39;;;;;;;9.63;1.50;;;4.30;99.90;;;;;;5056352;28;20232;-90
2023/12/27 10:22:06;;;;;;;8.97;1.23;;;4.30;99.90;;;;;;5053888;28;20218;-90
2023/12/27 10:24:42;;;;;;;7.57;1.80;;;4.40;99.90;;;;;;5054159;28;20220;-90
2023/12/27 10:27:09;;;;;;;9.97;1.90;;;4.40;99.90;;;;;;5050712;28;20652;-90
2023/12/27 10:29:35;;;;;;;8.70;1.50;;;4.40;99.90;;;;;;5049095;28;20186;-90
2023/12/27 10:32:07;;;;;;;11.67;2.57;;;4.50;99.90;;;;;;5057261;28;20208;-90
2023/12/27 10:34:33;;;;;;;5.60;1.50;;;4.40;99.90;;;;;;5057709;28;20217;-90
2023/12/27 10:37:01;;;;;;;9.47;1.77;;;4.50;99.90;;;;;;5056012;28;20201;-90
2023/12/27 10:39:27;;;;;;;9.63;1.90;;;4.60;99.90;;;;;;5057200;28;20185;-89
2023/12/27 10:41:53;;;;;;;6.37;1.83;;;4.60;99.90;;;;;;5055569;28;20217;-90
2023/12/27 10:44:22;;;;;;;7.53;1.67;;;4.70;99.90;;;;;;5055658;28;20182;-89
2023/12/27 10:46:49;;;;;;;7.83;1.40;;;4.70;99.90;;;;;;5048774;28;20189;-90
2023/12/27 10:49:16;;;;;;;11.30;1.90;;;4.80;99.90;;;;;;5035962;28;20186;-90
2023/12/27 10:51:42;;;;;;;7.50;1.57;;;4.80;99.90;;;;;;5057388;28;20193;-89
2023/12/27 10:54:11;;;;;;;10.30;2.27;;;4.90;99.90;;;;;;5055849;28;20189;-90
2023/12/27 10:56:39;;;;;;;3.50;1.53;;;4.90;99.90;;;;;;5054189;28;20590;-90
2023/12/27 10:59:08;;;;;;;14.80;2.70;;;5.00;99.90;;;;;;5045107;28;20195;-90
2023/12/27 11:01:45;;;;;;;10.30;2.00;;;5.00;99.90;;;;;;5046032;28;20214;-90
2023/12/27 11:04:17;;;;;;;11.67;2.13;;;5.00;99.90;;;;;;5048984;28;20186;-90
2023/12/27 11:06:45;;;;;;;5.80;1.87;;;5.10;99.90;;;;;;5056354;28;20189;-89
2023/12/27 11:09:13;;;;;;;8.37;1.70;;;5.10;99.90;;;;;;5051269;28;20213;-89
2023/12/27 11:11:40;;;;;;;6.53;1.40;;;5.10;99.90;;;;;;5047521;28;20225;-89
2023/12/27 11:14:12;;;;;;;7.73;1.73;;;5.10;99.90;;;;;;5051736;28;20186;-89
2023/12/27 11:16:40;;;;;;;12.33;1.67;;;5.20;99.90;;;;;;5044096;28;20193;-89
2023/12/27 11:19:07;;;;;;;13.17;1.60;;;5.20;99.90;;;;;;5049913;28;20185;-90
2023/12/27 11:21:37;;;;;;;5.87;1.47;;;5.20;99.90;;;;;;5054911;28;20618;-89
2023/12/27 11:24:07;;;;;;;10.37;2.07;;;5.20;99.90;;;;;;5051522;28;20700;-90
2023/12/27 11:26:36;;;;;;;8.63;1.93;;;5.20;99.90;;;;;;5042544;28;20276;-90
2023/12/27 11:29:10;;;;;;;7.03;1.43;;;5.20;99.90;;;;;;5053377;28;20260;-89
2023/12/27 11:31:38;;;;;;;10.20;1.77;;;5.30;99.90;;;;;;5052848;28;20208;-89
2023/12/27 11:34:12;;;;;;;7.47;1.50;;;5.30;99.90;;;;;;5059454;28;20192;-90
2023/12/27 11:36:38;;;;;;;9.43;2.17;;;5.40;99.90;;;;;;5054793;28;20281;-89
2023/12/27 11:39:20;;;;;;;8.90;1.87;;;5.40;99.90;;;;;;5054805;28;20193;-90
2023/12/27 11:41:47;;;;;;;8.97;2.13;;;5.40;99.90;;;;;;5052880;28;20214;-88
2023/12/27 11:44:17;;;;;;;7.47;1.30;;;5.50;99.90;;;;;;5067546;28;20182;-88
2023/12/27 11:46:43;;;;;;;6.27;1.63;;;5.50;99.90;;;;;;5054443;28;20194;-90
2023/12/27 11:49:17;;;;;;;8.20;1.70;;;5.60;99.90;;;;;;5039323;28;20628;-89
2023/12/27 11:51:43;;;;;;;10.40;2.10;;;5.60;99.90;;;;;;5053890;28;20200;-88
2023/12/27 11:54:20;;;;;;;8.50;1.67;;;5.70;99.90;;;;;;5047015;28;20277;-88
2023/12/27 11:56:46;;;;;;;11.00;1.70;;;5.70;99.90;;;;;;5051997;28;20187;-89
2023/12/27 11:59:12;;;;;;;9.60;1.90;;;5.70;99.90;;;;;;5053522;28;20292;-89
2023/12/27 12:01:40;;;;;;;9.57;1.90;;;5.70;99.90;;;;;;5048199;28;20232;-88
2023/12/27 12:04:33;;;;;;;9.87;1.50;;;5.80;99.90;;;;;;5053406;28;20239;-87
2023/12/27 12:07:15;;;;;;;10.07;1.80;;;5.80;99.90;;;;;;5053012;28;20189;-87
2023/12/27 12:09:45;;;;;;;11.60;1.77;;;5.80;99.90;;;;;;5052547;28;20203;-84
2023/12/27 12:12:22;;;;;;;10.60;2.07;;;5.90;99.90;;;;;;5057263;28;20252;-85
2023/12/27 12:14:54;;;;;;;7.40;1.47;;;5.90;99.90;;;;;;5050744;28;20189;-87
2023/12/27 12:17:20;;;;;;;8.70;1.50;;;5.90;99.90;;;;;;5055052;28;20188;-87
2023/12/27 12:19:50;;;;;;;9.40;1.53;;;5.80;99.90;;;;;;5053420;28;20189;-88
2023/12/27 12:22:19;;;;;;;7.93;1.87;;;5.90;99.90;;;;;;5053886;28;20285;-90
2023/12/27 12:24:46;;;;;;;8.83;1.20;;;5.90;99.90;;;;;;5053446;28;20666;-88
2023/12/27 12:27:21;;;;;;;6.10;1.33;;;5.90;99.90;;;;;;5057019;28;20222;-87
2023/12/27 12:29:47;;;;;;;6.93;1.30;;;5.90;99.90;;;;;;5053461;28;20208;-88
2023/12/27 12:32:16;;;;;;;7.73;1.30;;;5.90;99.90;;;;;;5053758;28;20185;-89
2023/12/27 12:34:41;;;;;;;6.67;1.20;;;5.90;99.90;;;;;;5052883;28;20247;-87
2023/12/27 12:37:07;;;;;;;8.30;1.53;;;5.90;99.90;;;;;;5053430;28;20644;-87
2023/12/27 12:39:33;;;;;;;5.83;1.40;;;5.90;99.90;;;;;;5053013;28;20197;-88
2023/12/27 12:41:59;;;;;;;5.83;1.30;;;5.90;99.90;;;;;;5047329;28;20214;-87
2023/12/27 12:44:25;;;;;;;10.20;1.90;;;5.90;99.90;;;;;;5043363;28;20182;-87
2023/12/27 12:46:51;;;;;;;12.77;1.97;;;5.90;99.90;;;;;;5040596;28;20512;-88
2023/12/27 12:49:17;;;;;;;8.47;2.03;;;5.90;99.90;;;;;;5051496;28;20182;-87
2023/12/27 12:51:43;;;;;;;5.33;1.23;;;5.90;99.90;;;;;;5052967;28;20218;-89